Time;durP1;ratioP1;P1;durP2;ratioP2;P2;SDS_P1;SDS_P2;PMS_P1;PMS_P2;Temp;Humidity;BMP_temperature;BMP_pressure;BME280_temperature;BME280_humidity;BME280_pressure;Samples;Min_cycle;Max_cycle;Signal;HPM_P1;HPM_P2
2023/01/15 00:01:51;;;;;;;18.50;5.80;;;;;;;3.57;73.44;98242.78;5045247;28;20095;-54
2023/01/15 00:04:18;;;;;;;18.67;6.53;;;;;;;3.56;72.79;98248.78;5042889;28;20155;-51
2023/01/15 00:06:44;;;;;;;15.20;5.30;;;;;;;3.52;73.26;98250.50;5045497;28;20102;-50
2023/01/15 00:09:14;;;;;;;6.25;3.47;;;;;;;3.52;73.12;98247.94;5042793;28;20507;-51
2023/01/15 00:11:40;;;;;;;15.98;4.20;;;;;;;3.50;73.42;98259.00;5024117;28;20103;-52
2023/01/15 00:14:07;;;;;;;6.20;3.53;;;;;;;3.49;73.28;98244.53;5046010;28;20045;-54
2023/01/15 00:16:34;;;;;;;11.82;5.22;;;;;;;3.50;73.40;98241.97;5045844;28;20049;-50
2023/01/15 00:19:03;;;;;;;12.32;4.78;;;;;;;3.46;73.54;98236.00;5042946;28;20061;-53
2023/01/15 00:21:29;;;;;;;21.00;6.53;;;;;;;3.44;73.72;98236.84;5041481;28;20048;-50
2023/01/15 00:29:31;;;;;;;7.88;3.25;;;;;;;3.39;73.94;98210.44;5010663;28;20539;-53
2023/01/15 00:32:02;;;;;;;4.85;3.00;;;;;;;3.37;73.97;98196.81;5025917;28;20130;-53
2023/01/15 00:34:29;;;;;;;3.95;1.92;;;;;;;3.36;73.89;98192.50;5025667;28;20122;-54
2023/01/15 00:36:57;;;;;;;6.00;1.17;;;;;;;3.33;73.45;98194.25;5024294;28;21882;-53
2023/01/15 00:39:24;;;;;;;4.53;2.90;;;;;;;3.30;74.17;98184.00;5019717;28;20068;-53
2023/01/15 00:41:51;;;;;;;6.05;2.78;;;;;;;3.31;73.77;98188.25;5018957;28;20056;-52
2023/01/15 00:44:19;;;;;;;3.88;2.97;;;;;;;3.29;73.97;98187.44;5026769;28;20048;-52
2023/01/15 00:46:45;;;;;;;3.50;1.95;;;;;;;3.28;74.21;98179.75;5014989;28;20107;-53
2023/01/15 00:49:12;;;;;;;2.88;1.70;;;;;;;3.28;74.38;98198.50;5020503;28;20064;-51
2023/01/15 00:51:39;;;;;;;4.25;2.70;;;;;;;3.28;74.32;98192.56;5023405;28;20325;-53
2023/01/15 00:54:06;;;;;;;5.00;2.05;;;;;;;3.23;73.83;98200.25;5025380;28;20045;-53
2023/01/15 00:56:32;;;;;;;3.55;2.00;;;;;;;3.27;74.16;98188.31;5024608;28;20076;-54
2023/01/15 00:59:01;;;;;;;2.72;0.32;;;;;;;3.26;73.76;98192.56;5029775;28;20829;-52
2023/01/15 01:01:28;;;;;;;3.55;1.70;;;;;;;3.25;73.84;98190.88;5016928;28;20158;-51
2023/01/15 01:03:55;;;;;;;3.35;1.23;;;;;;;3.24;73.85;98184.03;5022535;28;20077;-53
2023/01/15 01:06:22;;;;;;;1.45;1.35;;;;;;;3.24;73.49;98199.38;5024780;28;20095;-52
2023/01/15 01:08:48;;;;;;;2.63;1.60;;;;;;;3.22;73.74;98190.88;5005451;28;20084;-53
2023/01/15 01:11:18;;;;;;;6.68;1.60;;;;;;;3.19;73.71;98185.75;5026494;28;20157;-52
2023/01/15 01:13:45;;;;;;;5.60;1.30;;;;;;;3.19;74.30;98190.88;5027497;28;20107;-51
2023/01/15 01:16:23;;;;;;;2.58;1.15;;;;;;;3.16;73.68;98196.84;5024291;28;20140;-50
2023/01/15 01:18:50;;;;;;;3.97;1.38;;;;;;;3.17;73.43;98190.00;5000994;28;20088;-51
2023/01/15 01:21:17;;;;;;;2.60;1.10;;;;;;;3.14;73.86;98192.59;5027709;28;20145;-50
2023/01/15 01:23:44;;;;;;;1.77;1.67;;;;;;;3.13;73.99;98201.09;5025919;28;20080;-50
2023/01/15 01:26:12;;;;;;;3.50;1.02;;;;;;;3.11;73.35;98205.41;5022585;28;20175;-52
2023/01/15 01:28:40;;;;;;;4.18;1.50;;;;;;;3.13;72.97;98196.00;5021612;28;20057;-51
2023/01/15 01:31:08;;;;;;;3.47;1.52;;;;;;;3.11;73.35;98207.94;5022740;28;20059;-53
2023/01/15 01:33:35;;;;;;;2.60;1.27;;;;;;;3.06;74.03;98206.25;5022379;28;20142;-54
2023/01/15 01:36:02;;;;;;;8.65;1.65;;;;;;;3.06;73.66;98203.69;5023336;28;20166;-53
2023/01/15 01:38:28;;;;;;;0.20;0.20;;;;;;;3.07;74.09;98195.16;5026270;28;20879;-50
2023/01/15 01:40:55;;;;;;;2.17;1.85;;;;;;;3.05;73.14;98203.69;5024036;28;20124;-50
2023/01/15 01:43:26;;;;;;;1.70;1.35;;;;;;;2.99;74.01;98198.56;5024848;28;20092;-51
2023/01/15 01:45:52;;;;;;;;;;;;;;;2.94;73.59;98196.06;5023642;28;20140;-52
2023/01/15 01:48:29;;;;;;;3.70;1.55;;;;;;;2.95;73.89;98193.47;5025592;28;19925;-51
2023/01/15 01:50:59;;;;;;;4.65;1.80;;;;;;;2.98;73.04;98196.88;5024941;28;20503;-53
2023/01/15 01:53:27;;;;;;;;;;;;;;;2.92;73.36;98190.94;5006772;28;20480;-55
2023/01/15 01:55:56;;;;;;;3.78;1.20;;;;;;;2.94;73.96;98186.66;5025011;28;20017;-55
2023/01/15 01:58:28;;;;;;;5.70;1.63;;;;;;;2.95;73.11;98183.22;5018638;28;20137;-54
2023/01/15 02:00:56;;;;;;;10.05;2.05;;;;;;;2.95;73.70;98177.28;5024259;28;20168;-55
2023/01/15 02:03:26;;;;;;;3.92;1.55;;;;;;;2.95;73.45;98184.97;5026072;28;20052;-54
2023/01/15 02:05:57;;;;;;;2.83;1.70;;;;;;;2.93;73.47;98172.16;5020015;28;20131;-54
2023/01/15 02:08:24;;;;;;;2.10;1.48;;;;;;;2.96;73.19;98168.75;5026306;28;20148;-53
2023/01/15 02:10:53;;;;;;;5.32;1.67;;;;;;;2.94;72.76;98170.47;5022818;28;20099;-52
2023/01/15 02:24:11;;;;;;;2.33;0.20;;;;;;;2.87;73.28;98176.47;5098587;27;20411;-52
2023/01/15 02:32:18;;;;;;;2.65;0.80;;;;;;;2.86;73.48;98167.91;5064834;27;20401;-51
2023/01/15 02:34:51;;;;;;;1.38;0.52;;;;;;;2.83;72.34;98157.69;5059175;28;20926;-51
2023/01/15 02:37:24;;;;;;;4.65;0.73;;;;;;;2.87;72.56;98158.56;5059799;28;20169;-50
2023/01/15 02:39:53;;;;;;;2.70;0.85;;;;;;;2.82;72.43;98141.53;5074311;28;20153;-53
2023/01/15 02:42:22;;;;;;;1.83;0.43;;;;;;;2.88;73.14;98150.03;5058159;28;20511;-49
2023/01/15 02:44:53;;;;;;;1.45;0.90;;;;;;;2.85;72.16;98155.13;5056438;28;20689;-52
2023/01/15 02:47:25;;;;;;;2.92;0.50;;;;;;;2.89;72.85;98138.94;5057791;28;20129;-51
2023/01/15 02:49:56;;;;;;;2.08;0.68;;;;;;;2.89;73.46;98147.47;5058526;28;20048;-52
2023/01/15 02:52:29;;;;;;;3.33;0.63;;;;;;;2.93;72.55;98148.28;5057814;28;20056;-52
2023/01/15 02:55:02;;;;;;;2.40;0.60;;;;;;;2.97;72.99;98144.88;5057354;28;20721;-52
2023/01/15 02:57:33;;;;;;;1.08;0.65;;;;;;;3.00;73.42;98136.38;5055787;28;20147;-52
2023/01/15 03:00:04;;;;;;;2.40;0.28;;;;;;;3.04;73.01;98150.84;5058681;28;20115;-54
2023/01/15 03:02:39;;;;;;;3.10;0.28;;;;;;;3.03;73.39;98149.13;5062422;28;20044;-53
2023/01/15 03:10:32;;;;;;;1.92;0.47;;;;;;;3.38;73.25;98155.00;5019284;27;20404;-51
2023/01/15 03:13:01;;;;;;;2.40;0.85;;;;;;;3.15;74.63;98138.00;4991850;28;20064;-51
2023/01/15 03:18:13;;;;;;;3.47;1.58;;;;;;;3.04;74.98;98120.16;5018914;28;20428;-48
2023/01/15 03:20:46;;;;;;;1.52;1.42;;;;;;;2.99;74.36;98112.47;5010501;28;20142;-52
2023/01/15 03:23:16;;;;;;;3.70;1.98;;;;;;;2.93;75.11;98108.25;5035618;28;20080;-54
2023/01/15 03:25:47;;;;;;;3.58;1.42;;;;;;;2.87;74.68;98112.53;5031800;28;20048;-54
2023/01/15 03:28:18;;;;;;;1.77;0.52;;;;;;;2.87;74.83;98112.53;5029660;28;22646;-50
2023/01/15 03:30:45;;;;;;;2.63;1.27;;;;;;;2.85;75.31;98119.34;5031000;28;20049;-54
2023/01/15 03:33:14;;;;;;;2.63;0.50;;;;;;;2.83;75.86;98107.41;5032286;28;20424;-54
2023/01/15 03:35:58;;;;;;;4.03;1.80;;;;;;;2.80;75.90;98129.56;5030535;28;20061;-53
2023/01/15 03:38:29;;;;;;;1.95;1.70;;;;;;;2.81;75.33;98101.44;5029003;28;20060;-54
2023/01/15 03:43:53;;;;;;;1.33;0.20;;;;;;;2.72;75.03;98083.59;5006569;28;20417;-52
2023/01/15 03:49:12;;;;;;;5.57;2.05;;;;;;;2.66;76.19;98081.03;5023998;27;20403;-52
2023/01/15 03:51:50;;;;;;;2.85;1.70;;;;;;;2.66;75.49;98089.56;4976946;28;20065;-50
2023/01/15 03:54:31;;;;;;;3.55;1.85;;;;;;;2.69;75.69;98089.56;4973066;28;20141;-53
2023/01/15 03:57:13;;;;;;;6.05;2.03;;;;;;;2.72;76.03;98096.38;4977407;28;20158;-54
2023/01/15 03:59:50;;;;;;;1.75;1.65;;;;;;;2.74;76.32;98101.47;4973321;28;20113;-55
2023/01/15 04:02:19;;;;;;;2.08;0.22;;;;;;;2.75;75.47;98124.50;4991313;28;22110;-53
2023/01/15 04:04:46;;;;;;;2.63;2.42;;;;;;;2.78;75.72;98118.50;4995322;28;20076;-56
2023/01/15 04:07:14;;;;;;;1.55;1.42;;;;;;;2.79;76.99;98115.94;5027136;28;20131;-50
2023/01/15 04:09:41;;;;;;;2.85;1.52;;;;;;;2.79;76.36;98113.41;4994040;28;20700;-51
2023/01/15 04:12:07;;;;;;;1.88;1.15;;;;;;;2.83;75.85;98097.19;4997173;28;20053;-53
2023/01/15 04:14:34;;;;;;;3.30;1.65;;;;;;;2.81;76.76;98098.06;4995252;28;20144;-52
2023/01/15 04:17:01;;;;;;;1.13;1.13;;;;;;;2.79;75.64;98090.38;4994110;28;20057;-54
2023/01/15 04:19:27;;;;;;;5.47;2.03;;;;;;;2.83;76.71;98091.22;4994462;28;20570;-52
2023/01/15 04:21:54;;;;;;;9.35;1.13;;;;;;;2.83;75.60;98080.97;5003380;28;20061;-53
2023/01/15 04:24:21;;;;;;;5.32;0.52;;;;;;;2.81;76.62;98083.53;4994702;28;22095;-52
2023/01/15 04:26:47;;;;;;;3.38;1.83;;;;;;;2.83;76.71;98093.75;4997280;28;20386;-51
2023/01/15 04:29:14;;;;;;;3.35;1.55;;;;;;;2.87;75.82;98069.06;5023937;28;20141;-55
2023/01/15 04:31:41;;;;;;;7.95;1.60;;;;;;;2.85;76.67;98076.72;4989461;28;20165;-54
2023/01/15 04:34:07;;;;;;;3.70;0.60;;;;;;;2.88;76.09;98070.75;4994297;28;22388;-55
2023/01/15 04:36:34;;;;;;;7.60;1.73;;;;;;;2.94;75.74;98079.25;4999721;28;20144;-52
2023/01/15 04:39:03;;;;;;;3.50;1.63;;;;;;;2.95;76.13;98080.94;4994970;28;20059;-54
2023/01/15 04:44:16;;;;;;;4.20;1.48;;;;;;;3.02;76.77;98107.38;4992997;28;20049;-52
2023/01/15 04:46:45;;;;;;;5.30;1.15;;;;;;;2.96;77.29;98081.78;4990836;28;20241;-51
2023/01/15 04:49:14;;;;;;;3.63;2.50;;;;;;;2.94;77.37;98083.53;4992741;28;21926;-53
2023/01/15 04:51:42;;;;;;;2.30;1.85;;;;;;;2.95;77.50;98067.31;4995045;28;20127;-52
2023/01/15 04:54:10;;;;;;;3.55;1.38;;;;;;;2.93;76.83;98071.56;4990522;28;20073;-52
2023/01/15 04:56:40;;;;;;;2.08;1.83;;;;;;;2.89;76.70;98069.88;4996736;28;20097;-55
2023/01/15 04:59:07;;;;;;;3.83;1.90;;;;;;;2.82;76.87;98058.84;5002796;28;20084;-54
2023/01/15 05:01:33;;;;;;;4.70;2.00;;;;;;;2.77;76.56;98060.56;4978116;28;20136;-51
2023/01/15 05:04:00;;;;;;;4.00;1.60;;;;;;;2.73;77.80;98059.72;4981214;28;20058;-51
2023/01/15 05:06:28;;;;;;;8.15;1.80;;;;;;;2.72;76.74;98040.13;4980323;28;20192;-54
2023/01/15 05:08:55;;;;;;;7.38;1.85;;;;;;;2.72;76.73;98058.00;4983479;28;20046;-52
2023/01/15 05:11:21;;;;;;;1.50;1.40;;;;;;;2.73;77.60;98052.03;4980333;28;20076;-50
2023/01/15 05:13:48;;;;;;;2.95;1.38;;;;;;;2.70;77.79;98049.50;4979877;28;20169;-53
2023/01/15 05:16:18;;;;;;;2.92;2.47;;;;;;;2.68;77.66;98056.31;4980879;28;20148;-54
2023/01/15 05:18:46;;;;;;;1.75;1.45;;;;;;;2.67;76.88;98054.63;4977048;28;20069;-54
2023/01/15 05:21:17;;;;;;;4.68;0.82;;;;;;;2.65;78.16;98058.88;4994812;28;20731;-52
2023/01/15 05:23:44;;;;;;;1.58;1.48;;;;;;;2.64;78.14;98054.63;4981041;28;20073;-53
2023/01/15 05:26:11;;;;;;;2.42;1.75;;;;;;;2.66;77.21;98051.22;4986233;28;20082;-49
2023/01/15 05:28:38;;;;;;;5.57;1.67;;;;;;;2.68;77.05;98051.22;4980454;28;20161;-49
2023/01/15 05:31:07;;;;;;;3.45;1.98;;;;;;;2.71;77.52;98064.00;4973249;28;20128;-53
2023/01/15 05:33:34;;;;;;;1.58;1.42;;;;;;;2.76;77.31;98054.59;4959985;28;20062;-56
2023/01/15 05:36:05;;;;;;;3.95;1.33;;;;;;;2.80;77.87;98043.50;4984100;28;20489;-54
2023/01/15 05:38:33;;;;;;;4.35;1.92;;;;;;;2.83;76.99;98035.81;4983816;28;20145;-53
2023/01/15 05:43:51;;;;;;;1.60;1.50;;;;;;;2.90;78.35;98040.91;4957413;28;20659;-51
2023/01/15 05:46:18;;;;;;;1.75;1.33;;;;;;;2.94;77.09;98029.81;4957601;28;20050;-53
2023/01/15 05:48:44;;;;;;;2.10;1.33;;;;;;;2.99;77.06;98030.63;4959297;28;20128;-53
2023/01/15 05:51:11;;;;;;;2.95;1.27;;;;;;;3.05;77.76;98033.19;4969718;28;20082;-53
2023/01/15 05:53:38;;;;;;;2.35;1.15;;;;;;;3.11;77.87;98034.00;4960863;28;20230;-51
2023/01/15 05:56:05;;;;;;;4.30;2.67;;;;;;;3.13;77.09;98022.03;4958983;28;20196;-50
2023/01/15 05:58:31;;;;;;;2.25;1.35;;;;;;;3.18;77.74;98025.44;4960571;28;20082;-52
2023/01/15 06:00:58;;;;;;;1.75;1.38;;;;;;;3.23;77.61;98013.47;4959230;28;20218;-52
2023/01/15 06:03:26;;;;;;;2.78;1.27;;;;;;;3.27;77.58;98015.13;4959680;28;20058;-50
2023/01/15 06:05:54;;;;;;;3.35;1.45;;;;;;;3.29;76.78;98008.31;4961275;28;20109;-52
2023/01/15 06:08:22;;;;;;;4.95;1.92;;;;;;;3.31;77.63;98011.69;4951015;28;20180;-54
2023/01/15 06:10:49;;;;;;;2.25;0.95;;;;;;;3.33;76.74;98007.44;4957499;28;20642;-52
2023/01/15 06:13:16;;;;;;;3.05;1.63;;;;;;;3.39;77.17;98008.25;4956535;28;20159;-54
2023/01/15 06:15:43;;;;;;;3.70;2.03;;;;;;;3.43;76.83;98021.03;4960638;28;20083;-52
2023/01/15 06:18:10;;;;;;;7.07;1.52;;;;;;;3.49;77.38;98015.00;4961174;28;20061;-54
2023/01/15 06:20:40;;;;;;;3.53;0.43;;;;;;;3.55;76.86;98009.84;4966799;28;20588;-52
2023/01/15 06:23:08;;;;;;;5.07;1.42;;;;;;;3.59;77.45;98016.63;4961948;28;20132;-52
2023/01/15 06:25:36;;;;;;;5.00;2.00;;;;;;;3.63;77.19;98007.22;4966872;28;20139;-52
2023/01/15 06:28:04;;;;;;;4.75;1.63;;;;;;;3.64;77.70;98010.66;4979858;28;20549;-51
2023/01/15 06:30:31;;;;;;;5.43;1.70;;;;;;;3.66;77.06;98017.47;4979958;28;20088;-54
2023/01/15 06:32:59;;;;;;;3.33;1.77;;;;;;;3.69;77.51;98026.81;4977417;28;20529;-53
2023/01/15 06:35:26;;;;;;;1.95;1.38;;;;;;;3.68;77.23;98020.84;4981435;28;20111;-52
2023/01/15 06:37:53;;;;;;;7.55;1.67;;;;;;;3.72;77.60;98019.94;4983657;28;20068;-52
2023/01/15 06:40:20;;;;;;;4.70;2.33;;;;;;;3.72;77.04;98026.81;4978798;28;20148;-53
2023/01/15 06:48:26;;;;;;;5.05;2.83;;;;;;;3.71;76.84;98018.25;4977003;28;20458;-52
2023/01/15 06:50:53;;;;;;;2.33;2.08;;;;;;;3.76;77.15;98017.38;4991902;28;20056;-53
2023/01/15 06:53:20;;;;;;;3.83;2.22;;;;;;;3.79;76.91;98015.66;4985094;28;20076;-53
2023/01/15 06:55:47;;;;;;;4.68;2.22;;;;;;;3.81;76.30;98019.03;4974731;28;20096;-52
2023/01/15 06:58:14;;;;;;;4.40;1.55;;;;;;;3.82;76.84;98023.28;5008277;28;20136;-54
2023/01/15 07:00:42;;;;;;;11.00;2.75;;;;;;;3.81;76.71;98024.16;4982907;28;20046;-54
2023/01/15 07:03:09;;;;;;;5.05;1.65;;;;;;;3.81;76.79;98029.28;4997463;28;20066;-51
2023/01/15 07:05:38;;;;;;;8.93;2.22;;;;;;;3.80;76.37;98029.28;4981165;28;20042;-53
2023/01/15 07:08:04;;;;;;;7.03;2.25;;;;;;;3.83;76.53;98034.38;4981611;28;21200;-51
2023/01/15 07:10:34;;;;;;;3.65;1.60;;;;;;;3.88;76.74;98032.63;4982570;28;20667;-52
2023/01/15 07:13:00;;;;;;;3.83;0.55;;;;;;;3.91;76.25;98039.44;4991559;28;20459;-52
2023/01/15 07:15:27;;;;;;;7.38;1.42;;;;;;;3.91;76.36;98042.00;4977098;28;20490;-54
2023/01/15 07:17:55;;;;;;;3.20;1.60;;;;;;;3.89;77.17;98038.63;4979958;28;20160;-53
2023/01/15 07:20:22;;;;;;;8.90;2.00;;;;;;;3.88;76.34;98036.94;4973944;28;20141;-49
2023/01/15 07:22:50;;;;;;;6.75;2.10;;;;;;;3.89;76.61;98036.06;4983252;28;20077;-56
2023/01/15 07:25:17;;;;;;;6.63;2.50;;;;;;;3.82;76.61;98043.78;4982209;28;20058;-53
2023/01/15 07:27:46;;;;;;;6.63;1.88;;;;;;;3.88;77.01;98047.16;4991268;28;20045;-53
2023/01/15 07:30:14;;;;;;;4.20;1.38;;;;;;;3.82;76.74;98036.09;4978840;28;20120;-50
2023/01/15 07:32:41;;;;;;;2.33;1.30;;;;;;;3.83;76.77;98040.38;4974641;28;20112;-56
2023/01/15 07:35:09;;;;;;;3.15;0.40;;;;;;;3.85;76.64;98048.88;4978604;28;20516;-54
2023/01/15 07:37:36;;;;;;;2.92;1.48;;;;;;;3.85;76.69;98056.56;4978279;28;20051;-53
2023/01/15 07:40:03;;;;;;;3.97;0.90;;;;;;;3.88;76.48;98050.56;5011899;28;20137;-55
2023/01/15 07:50:54;;;;;;;4.82;1.25;;;;;;;3.93;76.66;98056.53;5005628;28;20636;-55
2023/01/15 07:53:20;;;;;;;1.70;1.60;;;;;;;3.92;76.48;98065.03;4978599;28;21274;-53
2023/01/15 07:55:47;;;;;;;5.97;2.45;;;;;;;3.94;76.60;98058.22;4983980;28;20082;-54
2023/01/15 07:58:13;;;;;;;7.88;2.25;;;;;;;3.94;76.53;98072.72;4977365;28;20074;-52
2023/01/15 08:00:40;;;;;;;2.55;1.33;;;;;;;3.90;76.18;98071.91;4984611;28;20089;-53
2023/01/15 08:03:08;;;;;;;2.53;1.15;;;;;;;3.93;76.32;98063.34;4977914;28;20125;-55
2023/01/15 08:05:34;;;;;;;1.73;1.63;;;;;;;3.95;76.67;98074.44;4996862;28;20046;-53
2023/01/15 08:08:01;;;;;;;2.72;1.60;;;;;;;3.93;76.48;98077.00;5001437;28;20077;-54
2023/01/15 08:10:27;;;;;;;4.82;1.77;;;;;;;3.92;76.20;98082.16;4999027;28;20114;-53
2023/01/15 08:15:42;;;;;;;5.03;2.78;;;;;;;3.92;76.62;98084.69;4995573;28;20078;-50
2023/01/15 08:18:09;;;;;;;7.15;1.95;;;;;;;3.96;76.44;98106.88;4997030;28;20050;-52
2023/01/15 08:20:36;;;;;;;3.03;1.75;;;;;;;3.97;76.66;98088.06;4997741;28;20077;-52
2023/01/15 08:23:03;;;;;;;2.67;1.38;;;;;;;4.01;75.94;98088.91;5002048;28;20041;-52
2023/01/15 08:25:30;;;;;;;4.18;1.75;;;;;;;4.08;76.51;98096.53;5000453;28;20050;-54
2023/01/15 08:28:00;;;;;;;3.20;1.83;;;;;;;4.10;76.10;98092.25;5001967;28;20050;-52
2023/01/15 08:30:27;;;;;;;2.63;1.63;;;;;;;4.18;76.25;98091.31;5001219;28;20078;-51
2023/01/15 08:32:59;;;;;;;6.82;0.65;;;;;;;4.16;76.16;98093.91;4999775;28;20683;-53
2023/01/15 08:35:25;;;;;;;9.07;2.30;;;;;;;4.16;75.81;98093.91;5003219;28;20057;-50
2023/01/15 08:37:52;;;;;;;5.22;1.60;;;;;;;4.13;75.79;98093.94;5006354;28;20073;-50
2023/01/15 08:40:19;;;;;;;4.70;1.75;;;;;;;4.14;75.89;98094.75;5001571;28;20112;-54
2023/01/15 08:42:45;;;;;;;4.45;2.05;;;;;;;4.12;75.46;98105.03;5005342;28;20046;-51
2023/01/15 08:45:12;;;;;;;2.10;0.30;;;;;;;4.15;75.99;98096.50;5006062;28;20660;-52
2023/01/15 08:47:38;;;;;;;5.05;0.60;;;;;;;4.16;75.97;98103.31;5004966;28;20870;-50
2023/01/15 08:50:07;;;;;;;5.93;2.08;;;;;;;4.15;76.03;98106.72;5005435;28;20517;-52
2023/01/15 08:52:34;;;;;;;6.75;1.60;;;;;;;4.17;75.79;98098.16;5005273;28;20052;-56
2023/01/15 08:55:00;;;;;;;3.75;1.23;;;;;;;4.18;76.15;98106.69;5006369;28;20053;-52
2023/01/15 08:57:27;;;;;;;3.95;1.90;;;;;;;4.18;75.89;98106.69;5004163;28;20053;-51
2023/01/15 08:59:54;;;;;;;1.88;0.15;;;;;;;4.20;75.74;98099.84;5002382;28;20859;-52
2023/01/15 09:02:21;;;;;;;6.63;1.75;;;;;;;4.25;75.45;98103.22;5005265;28;20065;-54
2023/01/15 09:04:48;;;;;;;4.75;2.05;;;;;;;4.30;75.93;98110.88;5001893;28;20130;-52
2023/01/15 09:07:15;;;;;;;5.97;1.70;;;;;;;4.30;75.76;98116.84;5002125;28;20041;-53
2023/01/15 09:09:42;;;;;;;7.75;1.75;;;;;;;4.32;75.34;98120.25;5004855;28;20800;-51
2023/01/15 09:12:09;;;;;;;5.30;1.45;;;;;;;4.35;76.07;98125.34;5003427;28;20161;-52
2023/01/15 09:14:35;;;;;;;5.10;1.65;;;;;;;4.40;75.84;98124.47;5004267;28;20563;-50
2023/01/15 09:17:22;;;;;;;2.15;1.02;;;;;;;4.43;75.21;98121.88;5004150;28;20374;-51
2023/01/15 09:19:49;;;;;;;1.45;0.98;;;;;;;4.47;75.43;98118.41;5000875;28;20058;-50
2023/01/15 09:22:15;;;;;;;2.47;1.25;;;;;;;4.53;75.75;98130.34;5005293;28;20072;-51
2023/01/15 09:24:42;;;;;;;4.15;2.28;;;;;;;4.57;75.51;98120.03;5006788;28;20053;-52
2023/01/15 09:27:11;;;;;;;5.35;1.20;;;;;;;4.66;75.34;98123.38;5000753;28;20140;-53
2023/01/15 09:29:37;;;;;;;6.45;1.40;;;;;;;4.73;75.21;98125.03;5002511;28;20042;-51
2023/01/15 09:32:04;;;;;;;4.80;1.10;;;;;;;4.76;75.27;98119.84;4997552;28;20141;-55
2023/01/15 09:34:30;;;;;;;4.70;2.30;;;;;;;4.80;75.01;98126.63;5000965;28;20050;-52
2023/01/15 09:36:57;;;;;;;6.32;2.08;;;;;;;4.86;75.03;98123.16;5002692;28;20083;-54
2023/01/15 09:39:23;;;;;;;3.00;1.58;;;;;;;4.94;74.79;98135.91;5001714;28;20041;-51
2023/01/15 09:44:51;;;;;;;14.80;3.83;;;;;;;5.10;74.73;98140.00;5021649;28;20402;-54
2023/01/15 09:55:27;;;;;;;4.72;0.93;;;;;;;5.31;74.25;98166.31;5031134;28;20576;-51
2023/01/15 09:57:58;;;;;;;8.27;1.25;;;;;;;5.32;74.31;98155.16;4992437;28;20066;-52
2023/01/15 10:00:28;;;;;;;6.38;1.20;;;;;;;5.33;74.39;98162.00;5006175;28;20054;-54
2023/01/15 10:03:18;;;;;;;4.82;0.75;;;;;;;5.36;73.74;98156.81;4984331;28;20054;-54
2023/01/15 10:08:28;;;;;;;10.45;2.60;;;;;;;5.48;73.66;98178.94;5052472;27;20408;-48
2023/01/15 10:11:03;;;;;;;14.30;3.35;;;;;;;5.47;74.87;98181.53;5045186;28;20469;-54
2023/01/15 10:13:38;;;;;;;15.00;3.47;;;;;;;5.49;74.22;98187.47;5038391;28;20135;-53
2023/01/15 10:16:05;;;;;;;18.88;4.80;;;;;;;5.49;74.51;98184.91;5070776;28;20052;-53
2023/01/15 10:18:32;;;;;;;11.65;2.65;;;;;;;5.46;74.42;98187.50;5045289;28;20152;-54
2023/01/15 10:32:21;;;;;;;14.15;3.78;;;;;;;5.49;74.33;98208.03;5057406;27;20413;-50
2023/01/15 10:45:35;;;;;;;11.65;2.13;;;;;;;5.50;74.03;98237.97;5027477;28;20404;-52
2023/01/15 10:48:19;;;;;;;6.30;1.42;;;;;;;5.49;73.21;98249.97;4992759;28;20173;-54
2023/01/15 10:50:47;;;;;;;8.10;1.42;;;;;;;5.53;74.10;98246.50;4991702;28;20050;-52
2023/01/15 10:55:54;;;;;;;5.82;2.28;;;;;;;5.58;73.32;98254.16;5006345;28;20400;-53
2023/01/15 11:01:09;;;;;;;5.18;2.25;;;;;;;5.53;74.09;98255.91;5091632;27;20119;-51
2023/01/15 11:03:39;;;;;;;8.18;2.67;;;;;;;5.55;74.01;98256.75;5040405;28;20052;-53
2023/01/15 11:06:13;;;;;;;7.47;1.90;;;;;;;5.57;74.07;98262.72;5060700;28;20080;-53
2023/01/15 11:08:42;;;;;;;9.27;3.08;;;;;;;5.61;73.33;98266.94;5040724;28;20073;-52
2023/01/15 11:22:55;;;;;;;11.65;2.97;;;;;;;5.99;73.67;98263.94;5014317;28;20407;-56
2023/01/15 11:25:31;;;;;;;11.00;4.07;;;;;;;6.11;72.54;98253.53;4997538;28;20149;-52
2023/01/15 11:28:03;;;;;;;14.15;4.60;;;;;;;6.22;72.87;98255.09;4991832;28;20137;-55
2023/01/15 11:30:36;;;;;;;26.70;7.47;;;;;;;6.36;72.85;98255.78;4993649;28;20054;-56
2023/01/15 11:33:05;;;;;;;18.73;6.43;;;;;;;6.48;72.66;98251.31;4989835;28;20504;-55
2023/01/15 11:35:32;;;;;;;10.20;5.20;;;;;;;6.58;72.00;98257.19;4982153;28;20043;-52
2023/01/15 11:38:03;;;;;;;6.47;2.08;;;;;;;6.65;72.25;98257.03;4993269;28;20836;-52
2023/01/15 11:40:29;;;;;;;12.77;3.55;;;;;;;6.68;72.82;98256.13;4989188;28;20077;-52
2023/01/15 11:51:41;;;;;;;11.35;2.17;;;;;;;6.84;71.47;98264.47;4986341;28;20097;-56
2023/01/15 11:54:11;;;;;;;10.68;2.90;;;;;;;7.10;71.01;98268.34;4990430;28;20077;-55
2023/01/15 11:56:42;;;;;;;6.18;2.03;;;;;;;7.26;70.63;98268.06;4989323;28;20046;-53
2023/01/15 11:59:13;;;;;;;5.72;2.17;;;;;;;7.28;71.42;98274.03;4987216;28;20077;-54
2023/01/15 12:07:05;;;;;;;7.97;1.42;;;;;;;7.61;69.91;98284.59;5023014;28;20403;-52
2023/01/15 12:10:13;;;;;;;8.20;0.82;;;;;;;7.40;70.85;98276.38;5002526;28;20050;-55
2023/01/15 12:13:06;;;;;;;6.22;0.80;;;;;;;7.29;70.19;98275.72;4984195;28;20157;-51
2023/01/15 12:16:05;;;;;;;7.32;0.80;;;;;;;7.25;71.27;98280.09;4997698;28;20548;-55
2023/01/15 12:26:37;;;;;;;8.10;1.27;;;;;;;7.31;71.07;98273.97;5039945;27;20405;-55
2023/01/15 12:29:14;;;;;;;5.53;1.00;;;;;;;7.31;70.39;98273.97;5020379;28;20053;-53
2023/01/15 12:31:48;;;;;;;6.60;1.42;;;;;;;7.30;70.60;98267.13;4996967;28;20084;-53
2023/01/15 12:34:24;;;;;;;8.95;1.42;;;;;;;7.30;69.69;98262.81;5001594;28;20141;-54
2023/01/15 12:37:02;;;;;;;5.93;2.67;;;;;;;7.28;69.37;98263.72;5018705;28;20467;-51
2023/01/15 12:39:35;;;;;;;5.35;1.35;;;;;;;7.20;70.64;98256.97;5022063;28;20119;-55
2023/01/15 12:44:59;;;;;;;4.32;1.45;;;;;;;7.06;70.72;98262.38;5008820;28;20042;-54
2023/01/15 12:47:33;;;;;;;4.40;1.17;;;;;;;7.06;70.22;98271.84;5020299;28;20045;-55
2023/01/15 12:52:53;;;;;;;6.82;2.90;;;;;;;7.00;70.81;98269.38;5033218;28;20426;-53
2023/01/15 12:55:27;;;;;;;14.02;2.00;;;;;;;7.01;69.71;98271.06;5022401;28;20065;-54
2023/01/15 12:58:00;;;;;;;11.90;2.35;;;;;;;7.00;69.50;98269.38;5021142;28;20133;-51
2023/01/15 13:00:35;;;;;;;13.15;4.03;;;;;;;6.96;70.04;98272.88;5020106;28;20092;-53
2023/01/15 13:03:25;;;;;;;5.90;2.47;;;;;;;6.92;69.57;98257.47;5019260;28;20128;-52
2023/01/15 13:05:57;;;;;;;18.63;5.60;;;;;;;6.93;71.14;98259.16;5020041;28;20061;-53
2023/01/15 13:10:59;;;;;;;49.63;13.05;;;;;;;6.94;70.78;98271.19;5026701;28;20398;-53
2023/01/15 13:13:35;;;;;;;16.92;4.38;;;;;;;6.91;70.47;98271.22;5011713;28;20038;-53
2023/01/15 13:19:20;;;;;;;5.93;2.13;;;;;;;6.90;70.65;98279.81;5068463;27;20386;-51
2023/01/15 13:21:51;;;;;;;8.32;1.77;;;;;;;6.97;70.49;98279.72;4991272;28;20046;-55
2023/01/15 13:24:58;;;;;;;11.75;2.72;;;;;;;7.00;69.56;98274.50;4998202;28;20081;-53
2023/01/15 13:27:53;;;;;;;11.48;2.35;;;;;;;7.11;70.44;98271.75;5010476;28;20046;-54
2023/01/15 13:36:04;;;;;;;19.77;4.35;;;;;;;7.15;68.91;98268.25;5012687;28;20733;-52
2023/01/15 13:38:39;;;;;;;17.98;3.72;;;;;;;7.16;69.59;98264.81;4986801;28;20132;-54
2023/01/15 13:41:07;;;;;;;15.30;2.33;;;;;;;7.16;69.58;98265.66;4986706;28;20729;-54
2023/01/15 13:43:40;;;;;;;7.07;1.05;;;;;;;7.19;69.59;98267.31;4982855;28;20104;-52
2023/01/15 13:46:10;;;;;;;19.75;2.72;;;;;;;7.23;68.98;98265.56;4983748;28;20149;-53
2023/01/15 13:51:42;;;;;;;17.85;3.85;;;;;;;7.52;67.98;98246.97;5054407;27;20389;-55
2023/01/15 13:54:15;;;;;;;18.52;4.32;;;;;;;7.40;69.01;98260.91;5012092;28;20477;-49
2023/01/15 13:56:43;;;;;;;15.70;1.67;;;;;;;7.35;68.21;98260.16;5015709;28;20053;-53
2023/01/15 14:02:25;;;;;;;11.18;2.83;;;;;;;7.25;69.35;98263.78;5048424;27;20408;-54
2023/01/15 14:04:52;;;;;;;9.27;1.58;;;;;;;7.20;68.16;98263.88;5036645;28;20386;-54
2023/01/15 14:07:29;;;;;;;12.07;1.92;;;;;;;7.18;68.88;98253.59;5033050;28;20069;-53
2023/01/15 14:10:06;;;;;;;;;;;;;;;7.10;69.84;98255.47;5027934;28;20049;-53
2023/01/15 14:12:49;;;;;;;12.30;2.33;;;;;;;7.12;68.22;98260.59;5029694;28;19921;-53
2023/01/15 14:18:34;;;;;;;20.60;2.75;;;;;;;7.10;68.38;98257.19;5057581;28;20411;-51
2023/01/15 14:24:07;;;;;;;8.52;2.30;;;;;;;7.06;69.62;98254.66;5015310;27;20487;-53
2023/01/15 14:35:01;;;;;;;15.18;5.25;;;;;;;7.19;68.86;98257.88;5032430;28;20423;-54
2023/01/15 14:37:37;;;;;;;11.15;4.30;;;;;;;7.15;68.43;98258.81;5028315;28;20088;-54
2023/01/15 14:40:05;;;;;;;11.02;3.83;;;;;;;7.11;69.18;98257.16;5025975;28;20184;-54
2023/01/15 14:45:27;;;;;;;7.00;2.45;;;;;;;7.06;68.12;98258.97;5020338;28;20046;-54
2023/01/15 14:47:57;;;;;;;10.15;2.55;;;;;;;7.03;68.34;98259.03;5021080;28;20542;-52